sensor_id;sensor_type;location;lat;lon;timestamp;temperature;humidity
78775;DHT22;68119;43.398;3.676;2023-07-22T00:00:18;23.00;51.50
78775;DHT22;68119;43.398;3.676;2023-07-22T00:02:48;23.00;51.50
78775;DHT22;68119;43.398;3.676;2023-07-22T00:05:19;23.10;51.90
78775;DHT22;68119;43.398;3.676;2023-07-22T00:07:49;23.00;51.40
78775;DHT22;68119;43.398;3.676;2023-07-22T00:10:21;23.00;51.50
78775;DHT22;68119;43.398;3.676;2023-07-22T00:12:52;23.00;51.70
78775;DHT22;68119;43.398;3.676;2023-07-22T00:15:23;23.00;51.90
78775;DHT22;68119;43.398;3.676;2023-07-22T00:17:53;23.00;52.10
78775;DHT22;68119;43.398;3.676;2023-07-22T00:20:24;23.00;51.70
78775;DHT22;68119;43.398;3.676;2023-07-22T00:22:53;23.00;52.20
78775;DHT22;68119;43.398;3.676;2023-07-22T00:25:26;23.00;51.80
78775;DHT22;68119;43.398;3.676;2023-07-22T00:27:58;23.00;51.80
78775;DHT22;68119;43.398;3.676;2023-07-22T00:30:30;23.00;52.20
78775;DHT22;68119;43.398;3.676;2023-07-22T00:32:58;23.00;52.00
78775;DHT22;68119;43.398;3.676;2023-07-22T00:35:27;23.00;52.00
78775;DHT22;68119;43.398;3.676;2023-07-22T00:38:01;23.00;52.50
78775;DHT22;68119;43.398;3.676;2023-07-22T00:40:37;23.00;52.70
78775;DHT22;68119;43.398;3.676;2023-07-22T00:43:12;22.90;52.50
78775;DHT22;68119;43.398;3.676;2023-07-22T00:45:44;22.90;52.60
78775;DHT22;68119;43.398;3.676;2023-07-22T00:48:13;22.90;52.40
78775;DHT22;68119;43.398;3.676;2023-07-22T00:50:46;22.90;52.40
78775;DHT22;68119;43.398;3.676;2023-07-22T00:53:17;22.80;52.50
78775;DHT22;68119;43.398;3.676;2023-07-22T00:55:50;22.80;52.70
78775;DHT22;68119;43.398;3.676;2023-07-22T00:58:20;22.80;52.70
78775;DHT22;68119;43.398;3.676;2023-07-22T01:00:51;22.80;52.80
78775;DHT22;68119;43.398;3.676;2023-07-22T01:03:29;22.70;53.00
78775;DHT22;68119;43.398;3.676;2023-07-22T01:05:58;22.70;53.20
78775;DHT22;68119;43.398;3.676;2023-07-22T01:08:30;22.60;53.40
78775;DHT22;68119;43.398;3.676;2023-07-22T01:11:01;22.60;53.30
78775;DHT22;68119;43.398;3.676;2023-07-22T01:13:31;22.60;53.40
78775;DHT22;68119;43.398;3.676;2023-07-22T01:16:03;22.60;53.10
78775;DHT22;68119;43.398;3.676;2023-07-22T01:18:33;22.60;53.30
78775;DHT22;68119;43.398;3.676;2023-07-22T01:21:02;22.60;53.40
78775;DHT22;68119;43.398;3.676;2023-07-22T01:23:37;22.60;53.50
78775;DHT22;68119;43.398;3.676;2023-07-22T01:26:12;22.50;53.60
78775;DHT22;68119;43.398;3.676;2023-07-22T01:28:41;22.50;53.60
78775;DHT22;68119;43.398;3.676;2023-07-22T01:31:07;22.50;53.90
78775;DHT22;68119;43.398;3.676;2023-07-22T01:33:38;22.40;54.00
78775;DHT22;68119;43.398;3.676;2023-07-22T01:36:12;22.40;54.10
78775;DHT22;68119;43.398;3.676;2023-07-22T01:38:46;22.30;54.20
78775;DHT22;68119;43.398;3.676;2023-07-22T01:41:20;22.30;54.30
78775;DHT22;68119;43.398;3.676;2023-07-22T01:43:51;22.30;54.50
78775;DHT22;68119;43.398;3.676;2023-07-22T01:46:23;22.30;54.50
78775;DHT22;68119;43.398;3.676;2023-07-22T01:48:48;22.40;54.50
78775;DHT22;68119;43.398;3.676;2023-07-22T01:51:17;22.40;54.70
78775;DHT22;68119;43.398;3.676;2023-07-22T01:53:51;22.50;54.80
78775;DHT22;68119;43.398;3.676;2023-07-22T01:56:24;22.50;55.00
78775;DHT22;68119;43.398;3.676;2023-07-22T01:58:56;22.50;54.70
78775;DHT22;68119;43.398;3.676;2023-07-22T02:01:25;22.50;55.00
78775;DHT22;68119;43.398;3.676;2023-07-22T02:04:00;22.40;54.90
78775;DHT22;68119;43.398;3.676;2023-07-22T02:06:28;22.40;54.80
78775;DHT22;68119;43.398;3.676;2023-07-22T02:09:00;22.40;54.80
78775;DHT22;68119;43.398;3.676;2023-07-22T02:11:36;22.40;54.70
78775;DHT22;68119;43.398;3.676;2023-07-22T02:14:07;22.30;55.00
78775;DHT22;68119;43.398;3.676;2023-07-22T02:16:38;22.30;55.10
78775;DHT22;68119;43.398;3.676;2023-07-22T02:19:09;22.30;55.00
78775;DHT22;68119;43.398;3.676;2023-07-22T02:21:43;22.30;55.20
78775;DHT22;68119;43.398;3.676;2023-07-22T02:24:09;22.20;55.00
78775;DHT22;68119;43.398;3.676;2023-07-22T02:26:41;22.20;55.00
78775;DHT22;68119;43.398;3.676;2023-07-22T02:29:13;22.20;55.10
78775;DHT22;68119;43.398;3.676;2023-07-22T02:31:44;22.20;55.20
78775;DHT22;68119;43.398;3.676;2023-07-22T02:34:13;22.20;55.00
78775;DHT22;68119;43.398;3.676;2023-07-22T02:36:47;22.10;55.50
78775;DHT22;68119;43.398;3.676;2023-07-22T02:39:15;22.00;55.40
78775;DHT22;68119;43.398;3.676;2023-07-22T02:41:49;21.90;55.60
78775;DHT22;68119;43.398;3.676;2023-07-22T02:44:18;21.90;55.90
78775;DHT22;68119;43.398;3.676;2023-07-22T02:46:47;21.90;56.00
78775;DHT22;68119;43.398;3.676;2023-07-22T02:49:21;21.90;56.00
78775;DHT22;68119;43.398;3.676;2023-07-22T02:51:47;21.90;56.00
78775;DHT22;68119;43.398;3.676;2023-07-22T02:54:16;21.90;56.20
78775;DHT22;68119;43.398;3.676;2023-07-22T02:56:48;21.90;56.20
78775;DHT22;68119;43.398;3.676;2023-07-22T02:59:20;21.80;56.10
78775;DHT22;68119;43.398;3.676;2023-07-22T03:01:48;21.90;56.10
78775;DHT22;68119;43.398;3.676;2023-07-22T03:04:16;21.80;56.20
78775;DHT22;68119;43.398;3.676;2023-07-22T03:06:44;21.90;56.10
78775;DHT22;68119;43.398;3.676;2023-07-22T03:09:13;21.90;56.00
78775;DHT22;68119;43.398;3.676;2023-07-22T03:11:42;21.90;56.00
78775;DHT22;68119;43.398;3.676;2023-07-22T03:14:11;21.90;56.20
78775;DHT22;68119;43.398;3.676;2023-07-22T03:16:42;21.80;56.30
78775;DHT22;68119;43.398;3.676;2023-07-22T03:19:11;21.80;56.40
78775;DHT22;68119;43.398;3.676;2023-07-22T03:21:39;21.80;56.40
78775;DHT22;68119;43.398;3.676;2023-07-22T03:24:08;21.70;56.50
78775;DHT22;68119;43.398;3.676;2023-07-22T03:26:37;21.70;56.50
78775;DHT22;68119;43.398;3.676;2023-07-22T03:29:10;21.70;56.60
78775;DHT22;68119;43.398;3.676;2023-07-22T03:31:36;21.70;56.70
78775;DHT22;68119;43.398;3.676;2023-07-22T03:34:07;21.70;56.70
78775;DHT22;68119;43.398;3.676;2023-07-22T03:36:36;21.70;57.00
78775;DHT22;68119;43.398;3.676;2023-07-22T03:39:11;21.50;57.20
78775;DHT22;68119;43.398;3.676;2023-07-22T03:41:42;21.50;57.60
78775;DHT22;68119;43.398;3.676;2023-07-22T03:44:16;21.50;57.60
78775;DHT22;68119;43.398;3.676;2023-07-22T03:46:47;21.50;57.60
78775;DHT22;68119;43.398;3.676;2023-07-22T03:49:21;21.50;57.80
78775;DHT22;68119;43.398;3.676;2023-07-22T03:51:50;21.50;57.80
78775;DHT22;68119;43.398;3.676;2023-07-22T03:54:18;21.50;57.60
78775;DHT22;68119;43.398;3.676;2023-07-22T03:56:52;21.50;57.80
78775;DHT22;68119;43.398;3.676;2023-07-22T03:59:23;21.50;57.90
78775;DHT22;68119;43.398;3.676;2023-07-22T04:01:54;21.40;58.10
78775;DHT22;68119;43.398;3.676;2023-07-22T04:04:22;21.40;58.10
78775;DHT22;68119;43.398;3.676;2023-07-22T04:06:55;21.40;58.10
78775;DHT22;68119;43.398;3.676;2023-07-22T04:09:24;21.40;58.00
78775;DHT22;68119;43.398;3.676;2023-07-22T04:11:55;21.40;58.20
78775;DHT22;68119;43.398;3.676;2023-07-22T04:14:21;21.40;58.40
78775;DHT22;68119;43.398;3.676;2023-07-22T04:16:51;21.40;58.50
78775;DHT22;68119;43.398;3.676;2023-07-22T04:19:20;21.40;58.40
78775;DHT22;68119;43.398;3.676;2023-07-22T04:21:54;21.40;58.70
78775;DHT22;68119;43.398;3.676;2023-07-22T04:24:33;21.40;58.70
78775;DHT22;68119;43.398;3.676;2023-07-22T04:27:08;21.30;58.70
78775;DHT22;68119;43.398;3.676;2023-07-22T04:29:39;21.30;58.70
78775;DHT22;68119;43.398;3.676;2023-07-22T04:32:19;21.20;58.80
78775;DHT22;68119;43.398;3.676;2023-07-22T04:34:56;21.10;59.00
78775;DHT22;68119;43.398;3.676;2023-07-22T04:37:22;21.10;59.20
78775;DHT22;68119;43.398;3.676;2023-07-22T04:39:49;21.10;59.10
78775;DHT22;68119;43.398;3.676;2023-07-22T04:42:18;21.10;59.10
78775;DHT22;68119;43.398;3.676;2023-07-22T04:44:49;21.10;59.00
78775;DHT22;68119;43.398;3.676;2023-07-22T04:47:15;21.10;58.80
78775;DHT22;68119;43.398;3.676;2023-07-22T04:49:44;21.20;58.90
78775;DHT22;68119;43.398;3.676;2023-07-22T04:52:18;21.20;59.00
78775;DHT22;68119;43.398;3.676;2023-07-22T04:54:50;21.10;59.20
78775;DHT22;68119;43.398;3.676;2023-07-22T04:57:19;21.10;59.30
78775;DHT22;68119;43.398;3.676;2023-07-22T04:59:53;21.10;59.20
78775;DHT22;68119;43.398;3.676;2023-07-22T05:02:27;21.20;59.10
78775;DHT22;68119;43.398;3.676;2023-07-22T05:05:03;21.20;59.00
78775;DHT22;68119;43.398;3.676;2023-07-22T05:07:41;21.20;59.00
78775;DHT22;68119;43.398;3.676;2023-07-22T05:10:13;21.10;58.90
78775;DHT22;68119;43.398;3.676;2023-07-22T05:12:45;21.20;58.90
78775;DHT22;68119;43.398;3.676;2023-07-22T05:15:14;21.20;58.90
78775;DHT22;68119;43.398;3.676;2023-07-22T05:17:48;21.10;58.70
78775;DHT22;68119;43.398;3.676;2023-07-22T05:20:17;21.10;58.60
78775;DHT22;68119;43.398;3.676;2023-07-22T05:22:46;21.10;58.70
78775;DHT22;68119;43.398;3.676;2023-07-22T05:25:15;21.10;58.90
78775;DHT22;68119;43.398;3.676;2023-07-22T05:27:41;21.10;59.10
78775;DHT22;68119;43.398;3.676;2023-07-22T05:30:21;21.20;58.60
78775;DHT22;68119;43.398;3.676;2023-07-22T05:32:53;21.20;58.50
78775;DHT22;68119;43.398;3.676;2023-07-22T05:35:25;21.30;58.10
78775;DHT22;68119;43.398;3.676;2023-07-22T05:37:54;21.30;58.20
78775;DHT22;68119;43.398;3.676;2023-07-22T05:40:23;21.30;58.30
78775;DHT22;68119;43.398;3.676;2023-07-22T05:42:51;21.30;58.40
78775;DHT22;68119;43.398;3.676;2023-07-22T05:45:29;21.40;58.40
78775;DHT22;68119;43.398;3.676;2023-07-22T05:48:03;21.50;58.40
78775;DHT22;68119;43.398;3.676;2023-07-22T05:50:32;21.50;58.40
78775;DHT22;68119;43.398;3.676;2023-07-22T05:53:04;21.50;58.30
78775;DHT22;68119;43.398;3.676;2023-07-22T05:55:30;21.60;58.20
78775;DHT22;68119;43.398;3.676;2023-07-22T05:58:02;21.70;58.10
78775;DHT22;68119;43.398;3.676;2023-07-22T06:00:37;21.70;58.10
78775;DHT22;68119;43.398;3.676;2023-07-22T06:03:08;21.70;57.90
78775;DHT22;68119;43.398;3.676;2023-07-22T06:05:46;21.80;57.80
78775;DHT22;68119;43.398;3.676;2023-07-22T06:08:21;21.80;57.80
78775;DHT22;68119;43.398;3.676;2023-07-22T06:10:49;21.90;57.80
78775;DHT22;68119;43.398;3.676;2023-07-22T06:13:26;21.90;58.70
78775;DHT22;68119;43.398;3.676;2023-07-22T06:15:55;22.00;57.70
78775;DHT22;68119;43.398;3.676;2023-07-22T06:18:21;22.00;57.20
78775;DHT22;68119;43.398;3.676;2023-07-22T06:20:55;22.10;56.80
78775;DHT22;68119;43.398;3.676;2023-07-22T06:23:27;22.10;56.20
78775;DHT22;68119;43.398;3.676;2023-07-22T06:25:56;22.20;56.20
78775;DHT22;68119;43.398;3.676;2023-07-22T06:28:25;22.30;56.20
78775;DHT22;68119;43.398;3.676;2023-07-22T06:30:53;22.40;56.00
78775;DHT22;68119;43.398;3.676;2023-07-22T06:33:33;22.50;56.00
78775;DHT22;68119;43.398;3.676;2023-07-22T06:36:02;22.50;55.50
78775;DHT22;68119;43.398;3.676;2023-07-22T06:38:31;22.60;55.50
78775;DHT22;68119;43.398;3.676;2023-07-22T06:41:00;22.70;55.40
78775;DHT22;68119;43.398;3.676;2023-07-22T06:43:28;22.80;55.10
78775;DHT22;68119;43.398;3.676;2023-07-22T06:46:02;22.80;55.00
78775;DHT22;68119;43.398;3.676;2023-07-22T06:48:34;22.90;54.80
78775;DHT22;68119;43.398;3.676;2023-07-22T06:51:03;23.00;54.70
78775;DHT22;68119;43.398;3.676;2023-07-22T06:53:40;23.10;54.30
78775;DHT22;68119;43.398;3.676;2023-07-22T06:56:11;23.10;54.90
78775;DHT22;68119;43.398;3.676;2023-07-22T06:58:40;23.20;55.30
78775;DHT22;68119;43.398;3.676;2023-07-22T07:01:12;23.20;55.50
78775;DHT22;68119;43.398;3.676;2023-07-22T07:03:46;23.30;55.40
78775;DHT22;68119;43.398;3.676;2023-07-22T07:06:20;23.40;54.80
78775;DHT22;68119;43.398;3.676;2023-07-22T07:08:55;23.40;54.80
78775;DHT22;68119;43.398;3.676;2023-07-22T07:11:23;23.40;54.80
78775;DHT22;68119;43.398;3.676;2023-07-22T07:13:52;23.50;54.60
78775;DHT22;68119;43.398;3.676;2023-07-22T07:16:31;23.60;54.60
78775;DHT22;68119;43.398;3.676;2023-07-22T07:19:06;23.60;54.50
78775;DHT22;68119;43.398;3.676;2023-07-22T07:21:40;23.70;54.20
78775;DHT22;68119;43.398;3.676;2023-07-22T07:24:14;23.80;54.50
78775;DHT22;68119;43.398;3.676;2023-07-22T07:26:40;23.90;54.00
78775;DHT22;68119;43.398;3.676;2023-07-22T07:29:15;23.90;53.90
78775;DHT22;68119;43.398;3.676;2023-07-22T07:31:46;24.00;54.10
78775;DHT22;68119;43.398;3.676;2023-07-22T07:34:15;24.10;53.30
78775;DHT22;68119;43.398;3.676;2023-07-22T07:36:43;24.20;53.00
78775;DHT22;68119;43.398;3.676;2023-07-22T07:39:15;24.20;52.40
78775;DHT22;68119;43.398;3.676;2023-07-22T07:41:41;24.30;52.40
78775;DHT22;68119;43.398;3.676;2023-07-22T07:44:09;24.40;52.40
78775;DHT22;68119;43.398;3.676;2023-07-22T07:46:41;24.50;52.00
78775;DHT22;68119;43.398;3.676;2023-07-22T07:49:17;24.60;51.90
78775;DHT22;68119;43.398;3.676;2023-07-22T07:51:52;24.80;51.20
78775;DHT22;68119;43.398;3.676;2023-07-22T07:54:32;24.80;50.90
78775;DHT22;68119;43.398;3.676;2023-07-22T07:57:03;24.90;50.20
78775;DHT22;68119;43.398;3.676;2023-07-22T07:59:34;24.80;49.90
78775;DHT22;68119;43.398;3.676;2023-07-22T08:02:09;24.90;50.10
78775;DHT22;68119;43.398;3.676;2023-07-22T08:04:38;24.90;50.20
78775;DHT22;68119;43.398;3.676;2023-07-22T08:07:09;25.00;50.30
78775;DHT22;68119;43.398;3.676;2023-07-22T08:09:38;25.20;49.90
78775;DHT22;68119;43.398;3.676;2023-07-22T08:12:07;25.30;49.00
78775;DHT22;68119;43.398;3.676;2023-07-22T08:14:36;25.30;49.20
78775;DHT22;68119;43.398;3.676;2023-07-22T08:17:12;25.30;48.80
78775;DHT22;68119;43.398;3.676;2023-07-22T08:19:44;25.30;48.80
78775;DHT22;68119;43.398;3.676;2023-07-22T08:22:13;25.30;49.00
78775;DHT22;68119;43.398;3.676;2023-07-22T08:24:46;25.40;49.30
78775;DHT22;68119;43.398;3.676;2023-07-22T08:27:17;25.50;49.10
78775;DHT22;68119;43.398;3.676;2023-07-22T08:29:49;25.90;48.70
78775;DHT22;68119;43.398;3.676;2023-07-22T08:32:23;26.00;47.30
78775;DHT22;68119;43.398;3.676;2023-07-22T08:34:49;26.10;47.20
78775;DHT22;68119;43.398;3.676;2023-07-22T08:37:15;26.20;47.20
78775;DHT22;68119;43.398;3.676;2023-07-22T08:39:46;26.30;47.10
78775;DHT22;68119;43.398;3.676;2023-07-22T08:42:21;26.40;46.50
78775;DHT22;68119;43.398;3.676;2023-07-22T08:44:59;26.30;46.80
78775;DHT22;68119;43.398;3.676;2023-07-22T08:47:29;26.40;47.00
78775;DHT22;68119;43.398;3.676;2023-07-22T08:50:01;26.60;46.20
78775;DHT22;68119;43.398;3.676;2023-07-22T08:52:33;26.50;45.90
78775;DHT22;68119;43.398;3.676;2023-07-22T08:55:02;26.60;45.90
78775;DHT22;68119;43.398;3.676;2023-07-22T08:57:39;26.80;46.10
78775;DHT22;68119;43.398;3.676;2023-07-22T09:00:10;27.20;45.40
78775;DHT22;68119;43.398;3.676;2023-07-22T09:02:45;27.50;45.00
78775;DHT22;68119;43.398;3.676;2023-07-22T09:05:17;27.70;44.50
78775;DHT22;68119;43.398;3.676;2023-07-22T09:07:47;27.70;43.60
78775;DHT22;68119;43.398;3.676;2023-07-22T09:10:19;27.70;43.90
78775;DHT22;68119;43.398;3.676;2023-07-22T09:13:02;27.90;43.30
78775;DHT22;68119;43.398;3.676;2023-07-22T09:15:34;27.70;43.90
78775;DHT22;68119;43.398;3.676;2023-07-22T09:18:04;27.80;43.50
78775;DHT22;68119;43.398;3.676;2023-07-22T09:20:36;27.80;43.80
78775;DHT22;68119;43.398;3.676;2023-07-22T09:23:07;28.00;43.50
78775;DHT22;68119;43.398;3.676;2023-07-22T09:25:38;28.20;42.90
78775;DHT22;68119;43.398;3.676;2023-07-22T09:28:13;28.30;42.80
78775;DHT22;68119;43.398;3.676;2023-07-22T09:30:45;28.40;42.70
78775;DHT22;68119;43.398;3.676;2023-07-22T09:33:25;28.40;42.50
78775;DHT22;68119;43.398;3.676;2023-07-22T09:35:57;28.20;42.40
78775;DHT22;68119;43.398;3.676;2023-07-22T09:38:35;28.00;43.10
78775;DHT22;68119;43.398;3.676;2023-07-22T09:41:03;28.10;42.80
78775;DHT22;68119;43.398;3.676;2023-07-22T09:43:41;28.00;42.80
78775;DHT22;68119;43.398;3.676;2023-07-22T09:46:13;28.10;42.40
78775;DHT22;68119;43.398;3.676;2023-07-22T09:48:45;28.20;42.30
78775;DHT22;68119;43.398;3.676;2023-07-22T09:51:18;28.60;42.00
78775;DHT22;68119;43.398;3.676;2023-07-22T09:54:00;28.90;41.70
78775;DHT22;68119;43.398;3.676;2023-07-22T09:56:33;29.00;41.50
78775;DHT22;68119;43.398;3.676;2023-07-22T09:59:12;29.00;41.30
78775;DHT22;68119;43.398;3.676;2023-07-22T10:01:44;29.20;41.20
78775;DHT22;68119;43.398;3.676;2023-07-22T10:04:18;29.10;40.80
78775;DHT22;68119;43.398;3.676;2023-07-22T10:06:52;29.00;40.40
78775;DHT22;68119;43.398;3.676;2023-07-22T10:09:31;29.10;40.10
78775;DHT22;68119;43.398;3.676;2023-07-22T10:12:04;29.30;39.70
78775;DHT22;68119;43.398;3.676;2023-07-22T10:14:30;29.20;45.10
78775;DHT22;68119;43.398;3.676;2023-07-22T10:17:03;28.50;47.20
78775;DHT22;68119;43.398;3.676;2023-07-22T10:19:34;28.70;45.80
78775;DHT22;68119;43.398;3.676;2023-07-22T10:22:09;28.50;46.60
78775;DHT22;68119;43.398;3.676;2023-07-22T10:24:45;28.70;45.80
78775;DHT22;68119;43.398;3.676;2023-07-22T10:27:20;28.90;45.50
78775;DHT22;68119;43.398;3.676;2023-07-22T10:29:54;28.90;45.20
78775;DHT22;68119;43.398;3.676;2023-07-22T10:32:23;28.90;47.50
78775;DHT22;68119;43.398;3.676;2023-07-22T10:34:55;28.60;48.50
78775;DHT22;68119;43.398;3.676;2023-07-22T10:37:32;28.30;49.80
78775;DHT22;68119;43.398;3.676;2023-07-22T10:40:30;28.50;50.00
78775;DHT22;68119;43.398;3.676;2023-07-22T10:43:04;28.50;50.30
78775;DHT22;68119;43.398;3.676;2023-07-22T10:45:43;28.70;50.70
78775;DHT22;68119;43.398;3.676;2023-07-22T10:48:15;29.10;50.30
78775;DHT22;68119;43.398;3.676;2023-07-22T10:50:58;28.30;51.50
78775;DHT22;68119;43.398;3.676;2023-07-22T10:53:28;28.20;50.20
78775;DHT22;68119;43.398;3.676;2023-07-22T10:56:14;28.40;50.00
78775;DHT22;68119;43.398;3.676;2023-07-22T11:12:20;28.50;52.50
78775;DHT22;68119;43.398;3.676;2023-07-22T11:15:27;28.50;53.60
78775;DHT22;68119;43.398;3.676;2023-07-22T11:17:52;28.30;53.60
78775;DHT22;68119;43.398;3.676;2023-07-22T11:20:24;28.00;54.40
78775;DHT22;68119;43.398;3.676;2023-07-22T11:22:58;28.10;53.60
78775;DHT22;68119;43.398;3.676;2023-07-22T11:25:36;28.10;52.80
78775;DHT22;68119;43.398;3.676;2023-07-22T11:28:14;28.10;52.40
78775;DHT22;68119;43.398;3.676;2023-07-22T11:30:48;28.20;52.00
78775;DHT22;68119;43.398;3.676;2023-07-22T11:33:14;30.10;48.70
78775;DHT22;68119;43.398;3.676;2023-07-22T11:35:42;33.20;44.50
78775;DHT22;68119;43.398;3.676;2023-07-22T11:38:14;34.80;41.70
78775;DHT22;68119;43.398;3.676;2023-07-22T11:40:45;35.00;41.70
78775;DHT22;68119;43.398;3.676;2023-07-22T11:43:17;35.60;40.40
78775;DHT22;68119;43.398;3.676;2023-07-22T11:45:46;35.90;40.90
78775;DHT22;68119;43.398;3.676;2023-07-22T11:48:20;37.30;40.20
78775;DHT22;68119;43.398;3.676;2023-07-22T11:50:51;38.10;39.70
78775;DHT22;68119;43.398;3.676;2023-07-22T11:53:20;39.10;38.20
78775;DHT22;68119;43.398;3.676;2023-07-22T11:58:13;36.90;41.10
78775;DHT22;68119;43.398;3.676;2023-07-22T12:00:48;37.30;39.40
78775;DHT22;68119;43.398;3.676;2023-07-22T12:03:33;37.70;39.70
78775;DHT22;68119;43.398;3.676;2023-07-22T12:06:03;38.20;39.10
78775;DHT22;68119;43.398;3.676;2023-07-22T12:08:35;36.90;40.00
78775;DHT22;68119;43.398;3.676;2023-07-22T12:11:22;36.90;40.30
78775;DHT22;68119;43.398;3.676;2023-07-22T12:14:09;36.00;41.50
78775;DHT22;68119;43.398;3.676;2023-07-22T12:16:39;34.80;43.20
78775;DHT22;68119;43.398;3.676;2023-07-22T12:19:14;34.80;43.40
78775;DHT22;68119;43.398;3.676;2023-07-22T12:21:43;35.00;42.40
78775;DHT22;68119;43.398;3.676;2023-07-22T12:24:16;33.30;44.40
78775;DHT22;68119;43.398;3.676;2023-07-22T12:26:48;35.70;42.00
78775;DHT22;68119;43.398;3.676;2023-07-22T12:29:19;36.70;40.00
78775;DHT22;68119;43.398;3.676;2023-07-22T12:31:51;37.00;40.20
78775;DHT22;68119;43.398;3.676;2023-07-22T12:34:25;36.10;41.20
78775;DHT22;68119;43.398;3.676;2023-07-22T12:36:59;35.20;43.00
78775;DHT22;68119;43.398;3.676;2023-07-22T12:39:28;35.10;42.80
78775;DHT22;68119;43.398;3.676;2023-07-22T12:41:57;35.40;42.70
78775;DHT22;68119;43.398;3.676;2023-07-22T12:44:28;34.30;43.30
78775;DHT22;68119;43.398;3.676;2023-07-22T12:46:58;34.00;44.40
78775;DHT22;68119;43.398;3.676;2023-07-22T12:49:24;33.90;44.20
78775;DHT22;68119;43.398;3.676;2023-07-22T12:51:58;34.50;43.20
78775;DHT22;68119;43.398;3.676;2023-07-22T12:54:38;33.00;44.90
78775;DHT22;68119;43.398;3.676;2023-07-22T12:57:13;33.50;44.30
78775;DHT22;68119;43.398;3.676;2023-07-22T12:59:42;32.00;45.70
78775;DHT22;68119;43.398;3.676;2023-07-22T13:02:13;31.60;46.00
78775;DHT22;68119;43.398;3.676;2023-07-22T13:04:44;31.70;46.20
78775;DHT22;68119;43.398;3.676;2023-07-22T13:07:21;31.30;46.80
78775;DHT22;68119;43.398;3.676;2023-07-22T13:09:50;31.30;47.20
78775;DHT22;68119;43.398;3.676;2023-07-22T13:12:23;31.30;47.40
78775;DHT22;68119;43.398;3.676;2023-07-22T13:14:52;30.70;47.90
78775;DHT22;68119;43.398;3.676;2023-07-22T13:17:23;30.40;49.10
78775;DHT22;68119;43.398;3.676;2023-07-22T13:19:52;30.20;48.70
78775;DHT22;68119;43.398;3.676;2023-07-22T13:22:27;30.00;49.30
78775;DHT22;68119;43.398;3.676;2023-07-22T13:24:58;30.10;50.00
78775;DHT22;68119;43.398;3.676;2023-07-22T13:27:29;31.00;48.50
78775;DHT22;68119;43.398;3.676;2023-07-22T13:29:58;32.00;47.20
78775;DHT22;68119;43.398;3.676;2023-07-22T13:32:33;31.50;48.00
78775;DHT22;68119;43.398;3.676;2023-07-22T13:35:01;30.90;49.70
78775;DHT22;68119;43.398;3.676;2023-07-22T13:37:43;31.40;47.60
78775;DHT22;68119;43.398;3.676;2023-07-22T13:40:15;30.80;48.30
78775;DHT22;68119;43.398;3.676;2023-07-22T13:42:43;30.50;48.30
78775;DHT22;68119;43.398;3.676;2023-07-22T13:45:15;30.30;48.70
78775;DHT22;68119;43.398;3.676;2023-07-22T13:47:49;30.00;48.00
78775;DHT22;68119;43.398;3.676;2023-07-22T13:50:18;30.70;47.90
78775;DHT22;68119;43.398;3.676;2023-07-22T13:52:49;30.50;48.30
78775;DHT22;68119;43.398;3.676;2023-07-22T13:55:23;29.50;50.00
78775;DHT22;68119;43.398;3.676;2023-07-22T13:57:54;29.10;51.00
78775;DHT22;68119;43.398;3.676;2023-07-22T14:00:23;29.40;50.50
78775;DHT22;68119;43.398;3.676;2023-07-22T14:02:49;29.40;50.90
78775;DHT22;68119;43.398;3.676;2023-07-22T14:05:23;29.30;50.20
78775;DHT22;68119;43.398;3.676;2023-07-22T14:07:51;29.50;49.90
78775;DHT22;68119;43.398;3.676;2023-07-22T14:10:23;30.60;48.70
78775;DHT22;68119;43.398;3.676;2023-07-22T14:13:02;30.90;48.50
78775;DHT22;68119;43.398;3.676;2023-07-22T14:15:34;30.80;49.10
78775;DHT22;68119;43.398;3.676;2023-07-22T14:18:07;30.30;50.70
78775;DHT22;68119;43.398;3.676;2023-07-22T14:20:33;30.00;50.90
78775;DHT22;68119;43.398;3.676;2023-07-22T14:23:05;29.20;52.10
78775;DHT22;68119;43.398;3.676;2023-07-22T14:25:34;28.90;53.00
78775;DHT22;68119;43.398;3.676;2023-07-22T14:28:08;29.30;52.90
78775;DHT22;68119;43.398;3.676;2023-07-22T14:30:37;29.90;52.70
78775;DHT22;68119;43.398;3.676;2023-07-22T14:33:08;29.70;53.10
78775;DHT22;68119;43.398;3.676;2023-07-22T14:35:40;29.20;52.70
78775;DHT22;68119;43.398;3.676;2023-07-22T14:38:09;29.10;53.00
78775;DHT22;68119;43.398;3.676;2023-07-22T14:40:46;29.30;53.00
78775;DHT22;68119;43.398;3.676;2023-07-22T14:43:22;29.90;52.20
78775;DHT22;68119;43.398;3.676;2023-07-22T14:45:54;29.40;51.10
78775;DHT22;68119;43.398;3.676;2023-07-22T14:48:28;29.10;52.20
78775;DHT22;68119;43.398;3.676;2023-07-22T14:51:05;30.00;49.30
78775;DHT22;68119;43.398;3.676;2023-07-22T14:53:31;29.50;49.30
78775;DHT22;68119;43.398;3.676;2023-07-22T14:56:03;29.70;49.00
78775;DHT22;68119;43.398;3.676;2023-07-22T14:58:38;29.50;48.60
78775;DHT22;68119;43.398;3.676;2023-07-22T15:01:12;29.50;48.80
78775;DHT22;68119;43.398;3.676;2023-07-22T15:03:44;29.90;49.10
78775;DHT22;68119;43.398;3.676;2023-07-22T15:06:11;30.10;49.60
78775;DHT22;68119;43.398;3.676;2023-07-22T15:08:45;29.70;51.80
78775;DHT22;68119;43.398;3.676;2023-07-22T15:11:16;30.00;52.40
78775;DHT22;68119;43.398;3.676;2023-07-22T15:13:45;30.00;52.50
78775;DHT22;68119;43.398;3.676;2023-07-22T15:16:14;30.00;51.90
78775;DHT22;68119;43.398;3.676;2023-07-22T15:18:45;29.20;53.20
78775;DHT22;68119;43.398;3.676;2023-07-22T15:21:14;29.00;51.50
78775;DHT22;68119;43.398;3.676;2023-07-22T15:23:51;29.70;48.60
78775;DHT22;68119;43.398;3.676;2023-07-22T15:26:23;30.00;47.70
78775;DHT22;68119;43.398;3.676;2023-07-22T15:28:52;29.90;48.20
78775;DHT22;68119;43.398;3.676;2023-07-22T15:31:29;30.40;47.60
78775;DHT22;68119;43.398;3.676;2023-07-22T15:34:03;30.70;48.30
78775;DHT22;68119;43.398;3.676;2023-07-22T15:36:34;30.30;48.80
78775;DHT22;68119;43.398;3.676;2023-07-22T15:39:00;29.30;49.90
78775;DHT22;68119;43.398;3.676;2023-07-22T15:41:34;29.00;51.10
78775;DHT22;68119;43.398;3.676;2023-07-22T15:44:06;29.60;51.10
78775;DHT22;68119;43.398;3.676;2023-07-22T15:46:35;29.00;53.80
78775;DHT22;68119;43.398;3.676;2023-07-22T15:49:09;28.70;54.90
78775;DHT22;68119;43.398;3.676;2023-07-22T15:51:46;29.10;54.00
78775;DHT22;68119;43.398;3.676;2023-07-22T15:54:17;29.20;53.70
78775;DHT22;68119;43.398;3.676;2023-07-22T15:56:54;29.40;52.30
78775;DHT22;68119;43.398;3.676;2023-07-22T15:59:28;29.50;50.40
78775;DHT22;68119;43.398;3.676;2023-07-22T16:01:57;29.40;49.00
78775;DHT22;68119;43.398;3.676;2023-07-22T16:04:28;29.50;49.20
78775;DHT22;68119;43.398;3.676;2023-07-22T16:06:59;28.90;50.90
78775;DHT22;68119;43.398;3.676;2023-07-22T16:09:32;29.00;51.80
78775;DHT22;68119;43.398;3.676;2023-07-22T16:12:02;29.00;52.10
78775;DHT22;68119;43.398;3.676;2023-07-22T16:14:39;28.90;52.50